createdAt,value
2018-06-21T00:01:52.508Z,21.60
2018-06-21T00:04:21.844Z,21.50
2018-06-21T00:06:50.736Z,21.50
2018-06-21T00:09:19.517Z,21.40
2018-06-21T00:11:49.025Z,21.40
2018-06-21T00:14:18.021Z,21.40
2018-06-21T00:16:46.799Z,21.40
2018-06-21T00:19:16.515Z,21.30
2018-06-21T00:21:45.304Z,21.30
2018-06-21T00:24:14.083Z,21.30
2018-06-21T00:26:42.768Z,21.20
2018-06-21T00:29:11.561Z,21.20
2018-06-21T00:31:40.449Z,21.20
2018-06-21T00:34:09.236Z,21.10
2018-06-21T00:36:38.126Z,21.10
2018-06-21T00:39:09.277Z,21.10
2018-06-21T00:41:38.161Z,21.00
2018-06-21T00:44:07.053Z,21.00
2018-06-21T00:46:36.307Z,21.00
2018-06-21T00:49:05.341Z,21.00
2018-06-21T00:51:34.129Z,20.90
2018-06-21T00:54:02.918Z,20.90
2018-06-21T00:56:31.703Z,20.90
2018-06-21T00:59:00.491Z,20.80
2018-06-21T01:03:58.780Z,20.80
2018-06-21T01:06:27.568Z,20.80
2018-06-21T01:08:56.405Z,20.70
2018-06-21T01:11:25.147Z,20.70
2018-06-21T01:13:54.035Z,20.70
2018-06-21T01:16:22.822Z,20.70
2018-06-21T01:18:51.444Z,20.70
2018-06-21T01:23:48.393Z,20.60
2018-06-21T01:26:17.247Z,20.60
2018-06-21T01:28:45.922Z,20.60
2018-06-21T01:31:14.493Z,20.60
2018-06-21T01:33:43.096Z,20.50
2018-06-21T01:36:13.216Z,20.50
2018-06-21T01:38:41.939Z,20.40
2018-06-21T01:46:08.227Z,20.40
2018-06-21T01:48:36.825Z,20.30
2018-06-21T01:51:05.635Z,20.30
2018-06-21T01:53:34.231Z,20.30
2018-06-21T01:56:02.938Z,20.30
2018-06-21T01:58:31.911Z,20.30
2018-06-21T02:01:00.540Z,20.20
2018-06-21T02:03:29.085Z,20.20
2018-06-21T02:05:58.459Z,20.20
2018-06-21T02:08:27.894Z,20.10
2018-06-21T02:10:56.543Z,20.10
2018-06-21T02:13:25.144Z,20.10
2018-06-21T02:15:53.849Z,20.10
2018-06-21T02:18:22.778Z,20.10
2018-06-21T02:20:51.599Z,20.10
2018-06-21T02:23:20.751Z,20.10
2018-06-21T02:30:46.033Z,20.10
2018-06-21T02:33:14.635Z,20.00
2018-06-21T02:35:43.402Z,20.00
2018-06-21T02:38:12.047Z,20.00
2018-06-21T02:40:41.412Z,20.00
2018-06-21T02:43:10.179Z,20.00
2018-06-21T02:45:38.863Z,20.00
2018-06-21T02:48:07.544Z,20.00
2018-06-21T02:50:36.233Z,20.00
2018-06-21T02:53:05.020Z,20.00
2018-06-21T02:55:33.701Z,20.00
2018-06-21T02:58:03.004Z,20.00
2018-06-21T03:00:31.567Z,20.00
2018-06-21T03:03:00.198Z,20.00
2018-06-21T03:05:28.851Z,20.00
2018-06-21T03:07:57.640Z,20.00
2018-06-21T03:10:26.299Z,20.00
2018-06-21T03:12:54.975Z,20.00
2018-06-21T03:15:23.725Z,20.00
2018-06-21T03:17:52.589Z,20.00
2018-06-21T03:20:21.628Z,20.00
2018-06-21T03:25:18.847Z,20.00
2018-06-21T03:27:47.436Z,20.00
2018-06-21T03:30:16.160Z,20.00
2018-06-21T03:35:13.996Z,20.00
2018-06-21T03:37:42.786Z,20.00
2018-06-21T03:40:11.675Z,20.00
2018-06-21T03:42:40.277Z,20.00
2018-06-21T03:45:08.843Z,20.00
2018-06-21T03:47:37.526Z,20.00
2018-06-21T03:50:06.224Z,20.00
2018-06-21T03:52:35.030Z,20.00
2018-06-21T03:55:04.091Z,20.00
2018-06-21T03:57:32.780Z,20.10
2018-06-21T04:00:01.489Z,20.10
2018-06-21T04:02:30.769Z,20.10
2018-06-21T04:04:59.461Z,20.10
2018-06-21T04:07:28.239Z,20.20
2018-06-21T04:09:56.920Z,20.20
2018-06-21T04:12:25.765Z,20.20
2018-06-21T04:14:54.433Z,20.20
2018-06-21T04:19:51.558Z,20.40
2018-06-21T04:22:20.344Z,20.40
2018-06-21T04:24:48.959Z,20.50
2018-06-21T04:27:17.635Z,20.60
2018-06-21T04:29:46.501Z,20.60
2018-06-21T04:32:15.441Z,20.70
2018-06-21T04:37:12.456Z,20.80
2018-06-21T04:39:41.250Z,20.80
2018-06-21T04:42:09.878Z,20.90
2018-06-21T04:47:07.293Z,21.00
2018-06-21T04:49:36.483Z,21.10
2018-06-21T04:52:05.404Z,21.10
2018-06-21T04:54:34.345Z,21.20
2018-06-21T04:57:02.990Z,21.30
2018-06-21T04:59:31.557Z,21.30
2018-06-21T05:02:00.152Z,21.40
2018-06-21T05:04:28.839Z,21.50
2018-06-21T05:06:57.612Z,21.60
2018-06-21T05:09:26.361Z,21.70
2018-06-21T05:11:55.175Z,21.80
2018-06-21T05:14:23.962Z,21.80
2018-06-21T05:16:52.582Z,21.90
2018-06-21T05:19:21.743Z,22.00
2018-06-21T05:21:50.324Z,22.10
2018-06-21T05:24:18.986Z,22.10
2018-06-21T05:26:47.653Z,22.20
2018-06-21T05:29:16.325Z,22.20
2018-06-21T05:34:13.346Z,22.50
2018-06-21T05:36:42.037Z,22.70
2018-06-21T05:39:11.705Z,23.10
2018-06-21T05:41:40.403Z,23.40
2018-06-21T05:44:09.565Z,23.40
2018-06-21T05:49:06.428Z,23.40
2018-06-21T05:54:03.284Z,23.40
2018-06-21T05:59:00.290Z,23.30
2018-06-21T06:01:29.957Z,23.50
2018-06-21T06:03:58.596Z,23.50
2018-06-21T06:06:27.160Z,23.50
2018-06-21T06:08:55.754Z,23.60
2018-06-21T06:11:24.685Z,23.70
2018-06-21T06:16:21.854Z,23.70
2018-06-21T06:23:47.316Z,23.60
2018-06-21T06:26:15.891Z,23.70
2018-06-21T06:31:12.781Z,24.00
2018-06-21T06:33:41.385Z,24.00
2018-06-21T06:36:09.969Z,23.90
2018-06-21T06:38:38.901Z,23.90
2018-06-21T06:41:07.548Z,24.10
2018-06-21T06:43:36.328Z,24.00
2018-06-21T06:46:05.026Z,23.80
2018-06-21T06:48:33.634Z,23.80
2018-06-21T06:55:58.860Z,23.90
2018-06-21T06:58:27.384Z,23.80
2018-06-21T07:00:57.023Z,23.90
2018-06-21T07:03:25.605Z,23.90
2018-06-21T07:05:55.314Z,23.90
2018-06-21T07:08:25.085Z,24.00
2018-06-21T07:10:54.405Z,24.20
2018-06-21T07:13:22.938Z,24.20
2018-06-21T07:15:51.592Z,24.10
2018-06-21T07:18:20.445Z,24.10
2018-06-21T07:20:49.257Z,24.40
2018-06-21T07:23:17.975Z,24.80
2018-06-21T07:25:47.928Z,24.90
2018-06-21T07:28:16.474Z,25.00
2018-06-21T07:30:45.807Z,24.90
2018-06-21T07:33:14.479Z,24.80
2018-06-21T07:35:43.701Z,25.00
2018-06-21T07:38:12.408Z,25.20
2018-06-21T07:40:41.195Z,25.30
2018-06-21T07:43:09.814Z,25.50
2018-06-21T07:45:38.528Z,25.60
2018-06-21T07:48:07.130Z,25.60
2018-06-21T07:50:35.779Z,25.70
2018-06-21T08:00:29.396Z,25.70
2018-06-21T08:05:26.187Z,26.20
2018-06-21T08:07:55.127Z,26.60
2018-06-21T08:10:24.452Z,26.60
2018-06-21T08:12:53.089Z,26.50
2018-06-21T08:15:21.746Z,26.30
2018-06-21T08:17:50.442Z,26.40
2018-06-21T08:20:19.088Z,26.10
2018-06-21T08:27:47.213Z,26.40
2018-06-21T08:30:17.182Z,26.50
2018-06-21T08:32:45.976Z,26.50
2018-06-21T08:35:14.682Z,26.60
2018-06-21T08:40:11.827Z,27.10
2018-06-21T08:42:41.027Z,27.10
2018-06-21T08:45:09.653Z,27.00
2018-06-21T08:47:38.524Z,27.20
2018-06-21T08:50:07.187Z,27.40
2018-06-21T08:52:35.752Z,27.50
2018-06-21T08:55:04.612Z,27.30
2018-06-21T08:57:33.328Z,26.90
2018-06-21T09:00:01.993Z,26.50
2018-06-21T09:02:30.783Z,26.30
2018-06-21T09:05:00.708Z,26.30
2018-06-21T09:07:29.321Z,26.50
2018-06-21T09:09:58.030Z,26.70
2018-06-21T09:12:30.896Z,26.70
2018-06-21T09:19:56.914Z,27.10
2018-06-21T09:22:25.513Z,27.30
2018-06-21T09:27:22.785Z,27.30
2018-06-21T09:29:52.029Z,27.10
2018-06-21T09:32:20.671Z,27.00
2018-06-21T09:42:29.344Z,27.70
2018-06-21T09:47:33.843Z,28.40
2018-06-21T09:50:02.629Z,28.00
2018-06-21T09:52:31.209Z,27.70
2018-06-21T09:54:59.828Z,27.60
2018-06-21T09:59:57.400Z,27.90
2018-06-21T10:04:54.910Z,28.10
2018-06-21T10:07:23.493Z,28.20
2018-06-21T10:09:52.157Z,28.40
2018-06-21T10:14:49.143Z,28.30
2018-06-21T10:17:17.744Z,28.30
2018-06-21T10:19:46.468Z,28.20
2018-06-21T10:22:15.202Z,28.30
2018-06-21T10:24:45.029Z,28.30
2018-06-21T10:27:13.818Z,28.20
2018-06-21T10:29:42.517Z,28.10
2018-06-21T10:32:11.267Z,28.00
2018-06-21T10:34:40.504Z,27.90
2018-06-21T10:37:09.080Z,28.20
2018-06-21T10:39:37.705Z,28.50
2018-06-21T10:54:28.513Z,20.40
2018-06-21T10:56:57.252Z,19.90
2018-06-21T10:59:26.915Z,19.60
2018-06-21T11:01:55.546Z,19.30
2018-06-21T11:04:24.892Z,18.90
2018-06-21T11:06:54.309Z,18.50
2018-06-21T11:09:22.987Z,17.40
2018-06-21T11:11:51.752Z,16.00
2018-06-21T11:14:20.411Z,15.40
2018-06-21T11:16:49.140Z,15.20
2018-06-21T11:19:17.760Z,15.40
2018-06-21T11:21:46.377Z,15.50
2018-06-21T11:26:43.409Z,15.30
2018-06-21T11:29:12.154Z,15.20
2018-06-21T11:31:40.932Z,15.10
2018-06-21T11:34:09.553Z,15.10
2018-06-21T11:36:38.228Z,15.30
2018-06-21T11:39:08.664Z,15.40
2018-06-21T11:41:37.365Z,15.40
2018-06-21T11:44:06.462Z,15.50
2018-06-21T11:46:35.092Z,15.60
2018-06-21T11:49:03.950Z,15.80
2018-06-21T11:51:32.485Z,15.90
2018-06-21T11:54:01.043Z,16.20
2018-06-21T11:56:29.841Z,16.30
2018-06-21T11:58:59.131Z,16.70
2018-06-21T12:01:27.966Z,16.90
2018-06-21T12:03:56.590Z,16.80
2018-06-21T12:11:22.898Z,16.10
2018-06-21T12:13:51.578Z,16.10
2018-06-21T12:16:20.544Z,15.90
2018-06-21T12:18:49.151Z,15.80
2018-06-21T12:21:18.611Z,15.60
2018-06-21T12:23:47.205Z,15.60
2018-06-21T12:26:15.932Z,15.50
2018-06-21T12:28:44.531Z,15.30
2018-06-21T12:31:13.096Z,15.20
2018-06-21T12:33:41.635Z,15.20
2018-06-21T12:38:39.169Z,14.90
2018-06-21T12:41:07.727Z,14.80
2018-06-21T12:43:36.435Z,14.90
2018-06-21T12:46:05.176Z,14.90
2018-06-21T12:48:33.744Z,14.90
2018-06-21T12:51:02.363Z,14.50
2018-06-21T12:53:30.911Z,14.10
2018-06-21T12:55:59.535Z,13.70
2018-06-21T12:58:28.788Z,13.30
2018-06-21T13:03:25.769Z,12.90
2018-06-21T13:05:55.479Z,12.90
2018-06-21T13:08:35.244Z,13.00
2018-06-21T13:12:19.597Z,12.80
2018-06-21T13:14:48.173Z,12.80
2018-06-21T13:17:16.829Z,13.00
2018-06-21T13:19:46.363Z,13.10
2018-06-21T13:22:15.148Z,13.20
2018-06-21T13:24:44.069Z,13.50
2018-06-21T13:27:13.108Z,14.10
2018-06-21T13:34:39.524Z,15.40
2018-06-21T13:37:08.726Z,15.80
2018-06-21T13:39:37.535Z,16.50
2018-06-21T13:42:06.336Z,17.40
2018-06-21T13:47:03.980Z,18.90
2018-06-21T13:49:32.532Z,17.70
2018-06-21T13:52:01.281Z,17.00
2018-06-21T13:56:58.380Z,15.90
2018-06-21T13:59:27.027Z,15.60
2018-06-21T14:01:55.547Z,15.40
2018-06-21T14:04:24.744Z,15.20
2018-06-21T14:06:54.183Z,15.20
2018-06-21T14:09:22.845Z,15.20
2018-06-21T14:11:52.233Z,15.00
2018-06-21T14:14:21.420Z,14.90
2018-06-21T14:16:50.009Z,14.80
2018-06-21T14:19:18.733Z,14.80
2018-06-21T14:21:47.287Z,14.80
2018-06-21T14:24:16.447Z,14.70
2018-06-21T14:29:13.538Z,14.80
2018-06-21T14:31:42.110Z,15.00
2018-06-21T14:34:11.246Z,15.30
2018-06-21T14:36:39.957Z,15.30
2018-06-21T14:39:09.490Z,15.50
2018-06-21T14:41:38.499Z,15.70
2018-06-21T14:44:07.122Z,17.00
2018-06-21T14:46:35.828Z,19.10
2018-06-21T14:49:04.455Z,20.50
2018-06-21T14:51:33.042Z,21.00
2018-06-21T14:54:01.650Z,21.50
2018-06-21T14:56:30.271Z,22.00
2018-06-21T14:58:58.985Z,22.80
2018-06-21T15:01:27.741Z,21.50
2018-06-21T15:06:24.824Z,22.60
2018-06-21T15:08:53.487Z,22.40
2018-06-21T15:11:22.118Z,23.30
2018-06-21T15:13:51.955Z,23.20
2018-06-21T15:16:22.299Z,23.10
2018-06-21T15:18:50.966Z,22.90
2018-06-21T15:21:20.019Z,21.80
2018-06-21T15:23:48.925Z,21.70
2018-06-21T15:26:17.494Z,22.10
2018-06-21T15:28:46.257Z,22.80
2018-06-21T15:31:16.186Z,22.70
2018-06-21T15:33:46.376Z,22.20
2018-06-21T15:38:48.913Z,21.50
2018-06-21T15:41:17.524Z,20.70
2018-06-21T15:43:47.067Z,20.40
2018-06-21T15:48:45.663Z,20.00
2018-06-21T15:53:45.201Z,21.00
2018-06-21T15:56:15.332Z,21.50
2018-06-21T15:58:45.965Z,22.20
2018-06-21T16:01:15.908Z,20.70
2018-06-21T16:03:45.341Z,19.70
2018-06-21T16:06:17.011Z,19.60
2018-06-21T16:16:18.840Z,22.70
2018-06-21T16:18:48.195Z,23.40
2018-06-21T16:21:17.926Z,23.70
2018-06-21T16:26:17.442Z,23.20
2018-06-21T16:31:16.404Z,21.80
2018-06-21T16:33:46.724Z,21.60
2018-06-21T16:36:17.407Z,20.10
2018-06-21T16:41:16.369Z,19.60
2018-06-21T16:43:45.034Z,20.20
2018-06-21T16:46:14.743Z,19.50
2018-06-21T16:48:44.756Z,19.00
2018-06-21T16:56:22.018Z,18.30
2018-06-21T17:01:26.043Z,17.80
2018-06-21T17:03:54.807Z,17.70
2018-06-21T17:06:23.414Z,17.30
2018-06-21T17:08:52.377Z,17.30
2018-06-21T17:11:20.993Z,17.10
2018-06-21T17:13:49.753Z,17.20
2018-06-21T17:16:20.337Z,17.40
2018-06-21T17:21:20.331Z,17.20
2018-06-21T17:23:49.485Z,17.20
2018-06-21T17:26:18.386Z,17.30
2018-06-21T17:28:47.801Z,17.30
2018-06-21T17:31:18.454Z,17.00
2018-06-21T17:33:48.106Z,16.90
2018-06-21T17:36:19.961Z,16.90
2018-06-21T17:38:49.543Z,16.90
2018-06-21T17:41:19.405Z,16.90
2018-06-21T17:43:49.806Z,16.80
2018-06-21T17:51:17.369Z,16.40
2018-06-21T17:53:46.732Z,16.20
2018-06-21T17:56:15.369Z,16.10
2018-06-21T17:58:43.942Z,16.00
2018-06-21T18:01:12.679Z,16.00
2018-06-21T18:03:41.320Z,16.00
2018-06-21T18:08:39.104Z,15.90
2018-06-21T18:13:39.908Z,15.90
2018-06-21T18:16:10.641Z,15.90
2018-06-21T18:18:40.499Z,15.90
2018-06-21T18:23:43.631Z,15.90
2018-06-21T18:26:12.216Z,15.90
2018-06-21T18:28:43.405Z,15.90
2018-06-21T18:31:12.929Z,15.80
2018-06-21T18:36:15.146Z,15.50
2018-06-21T18:38:43.924Z,15.40
2018-06-21T18:41:13.381Z,15.40
2018-06-21T18:43:42.249Z,15.40
2018-06-21T18:46:14.651Z,15.40
2018-06-21T18:48:43.250Z,15.30
2018-06-21T18:51:16.743Z,15.20
2018-06-21T18:56:31.627Z,15.30
2018-06-21T18:59:00.759Z,15.10
2018-06-21T19:01:30.362Z,15.00
2018-06-21T19:04:01.533Z,15.00
2018-06-21T19:06:40.758Z,14.90
2018-06-21T19:09:14.948Z,14.80
2018-06-21T19:11:49.992Z,14.80
2018-06-21T19:14:20.037Z,14.70
2018-06-21T19:16:52.922Z,14.70
2018-06-21T19:19:23.548Z,14.60
2018-06-21T19:24:24.512Z,14.50
2018-06-21T19:26:54.103Z,14.40
2018-06-21T19:29:30.497Z,14.30
2018-06-21T19:34:27.771Z,14.20
2018-06-21T19:36:56.662Z,14.10
2018-06-21T19:39:26.928Z,14.10
2018-06-21T19:41:55.678Z,14.00
2018-06-21T19:44:24.853Z,14.00
2018-06-21T19:46:55.654Z,14.00
2018-06-21T19:49:24.261Z,13.90
2018-06-21T19:51:52.898Z,13.90
2018-06-21T19:54:21.606Z,13.80
2018-06-21T19:56:50.215Z,13.80
2018-06-21T19:59:21.216Z,13.70
2018-06-21T20:01:51.809Z,13.60
2018-06-21T20:04:20.520Z,13.70
2018-06-21T20:09:19.565Z,13.60
2018-06-21T20:11:48.987Z,13.60
2018-06-21T20:14:17.580Z,13.50
2018-06-21T20:16:46.843Z,13.50
2018-06-21T20:19:16.890Z,13.50
2018-06-21T20:21:46.474Z,13.50
2018-06-21T20:24:15.261Z,13.40
2018-06-21T20:26:44.009Z,13.40
2018-06-21T20:29:17.804Z,13.40
2018-06-21T20:36:44.185Z,13.40
2018-06-21T20:39:13.092Z,13.30
2018-06-21T20:41:41.719Z,13.30
2018-06-21T20:44:10.914Z,13.30
2018-06-21T20:46:40.290Z,13.30
2018-06-21T20:49:09.860Z,13.30
2018-06-21T20:51:38.556Z,13.20
2018-06-21T20:54:07.309Z,13.20
2018-06-21T21:01:33.472Z,13.10
2018-06-21T21:06:30.487Z,13.10
2018-06-21T21:08:59.387Z,13.10
2018-06-21T21:13:56.577Z,13.10
2018-06-21T21:16:25.292Z,13.10
2018-06-21T21:18:54.003Z,13.00
2018-06-21T21:21:22.698Z,13.00
2018-06-21T21:23:51.316Z,13.00
2018-06-21T21:26:19.953Z,13.00
2018-06-21T21:28:48.635Z,13.00
2018-06-21T21:36:16.268Z,13.00
2018-06-21T21:38:45.447Z,12.90
2018-06-21T21:41:14.205Z,12.90
2018-06-21T21:43:53.952Z,12.90
2018-06-21T21:46:22.612Z,12.80
2018-06-21T21:48:52.304Z,12.80
2018-06-21T21:51:21.016Z,12.80
2018-06-21T21:58:46.428Z,12.70
2018-06-21T22:01:15.098Z,12.70
2018-06-21T22:03:43.765Z,12.70
2018-06-21T22:06:13.035Z,12.70
2018-06-21T22:08:41.694Z,12.60
2018-06-21T22:13:40.165Z,12.60
2018-06-21T22:16:08.852Z,12.60
2018-06-21T22:18:37.492Z,12.60
2018-06-21T22:21:06.103Z,12.50
2018-06-21T22:23:34.800Z,12.50
2018-06-21T22:26:03.500Z,12.50
2018-06-21T22:28:32.074Z,12.50
2018-06-21T22:31:00.713Z,12.50
2018-06-21T22:33:29.389Z,12.40
2018-06-21T22:35:58.183Z,12.40
2018-06-21T22:38:26.947Z,12.40
2018-06-21T22:43:23.836Z,12.30
2018-06-21T22:45:54.251Z,12.30
2018-06-21T22:48:23.067Z,12.30
2018-06-21T22:50:51.793Z,12.30
2018-06-21T22:53:20.560Z,12.20
2018-06-21T22:55:49.239Z,12.20
2018-06-21T22:58:18.001Z,12.20
2018-06-21T23:03:14.772Z,12.20
2018-06-21T23:05:43.422Z,12.10
2018-06-21T23:08:11.982Z,12.10
2018-06-21T23:20:35.514Z,11.90
2018-06-21T23:23:04.094Z,11.90
2018-06-21T23:30:33.839Z,11.80
2018-06-21T23:35:35.726Z,11.80
2018-06-21T23:38:07.330Z,11.80
2018-06-21T23:40:36.612Z,11.80
2018-06-21T23:43:07.171Z,11.70
2018-06-21T23:45:36.487Z,11.70
2018-06-21T23:48:05.653Z,11.70
2018-06-21T23:50:34.261Z,11.70
2018-06-21T23:53:02.836Z,11.70
2018-06-21T23:55:31.552Z,11.60
2018-06-21T23:58:03.452Z,11.60
